Aeroporto :
LOGIN :

Iscrizione | Disclaimer

   EN    FR    IT 

 










Sommario :    VFR   VFR Marginale   IFR   IFR Intensivo   IFR Molto Intensivo
Visibilità : 
Base nubi : 
>= 8 km
>= 3000ft
5 / 8 km
1000 / 3000 ft
1500m / 5 km
500 / 1000 ft
800 / 1500m
200 / 500 ft
< 800m
< 200 ft
Simboli :   Temporali  Nebbia  Neve Forte  Precipitazioni Forti  Vento > 20 kt
SIGMETs :   Varie  Temporali  Ghiacco  Turbolenza  Onda orograficha  Ceneri Vulcaniche






- Altitudine del aeroporto : 74 ft
- Codice IATA : MRS


LFML - Marseille / Marignane

ULTIMO METAR :
  • 240900Z AUTO 33038KT CAVOK 12/M00 Q1010 BECMG 33030G45KT

METARs OBSOLETI :
  • 240830Z AUTO 32033G44KT CAVOK 12/M01 Q1010 NOSIG
  • 240800Z AUTO 33026G40KT CAVOK 11/M01 Q1011 NOSIG
  • 240730Z AUTO 32027KT CAVOK 10/M00 Q1011 BECMG 34030G40KT
  • 240700Z AUTO 32025G37KT 9999 FEW015 10/M00 Q1011 NOSIG
  • 240630Z AUTO 32030G41KT CAVOK 09/M00 Q1010 NOSIG
  • 240600Z AUTO 32030KT CAVOK 09/M00 Q1010 BECMG 34030G40KT
  • 240530Z AUTO 32028KT CAVOK 09/M00 Q1010 BECMG 34030G40KT
  • 240500Z AUTO 32027G37KT 9999 FEW018 08/M00 Q1010 NOSIG
  • 240430Z AUTO 32024KT CAVOK 08/M00 Q1010 BECMG 34030G40KT
  • 240400Z AUTO 32021KT CAVOK 08/M01 Q1010 TEMPO 34030G40KT

TAF TAF LFML
Valido dal 24 a 09 ore il 25 a 15 ore UTC


240800Z 2409/2515 33030G45KT CAVOK TX16/2415Z TN07/2503Z
BECMG 2414/2417 33020G35KT
BECMG 2501/2503 32012G25KT
BECMG 2512/2514 25012KT
ATIS : +33 4 42 31 15 15



MetMap, La meteo Aeronautica in un colpo d'occhio ! - Copyright ORBIFLY Dicembre 2007 - Disclaimer

ORBIFLY MET'MAP TEAM :

Programmazione e sviluppo : Alexandra Zaïnal
Concezione : Baudouin d'Aumeries
Supporto tecnico e logistico : Manuel Goepfert
Aiuto : Marc-Olivier Méhu
Aiuto per la traduzione : Arnaldo La Scala




FONTI E CREDITI :

   NOAA